CheckWX is a tool to help pilots better visualize weather data.  It is not intended as a substitute for an official pre-flight weather briefing.

01:57:28 UTC

EGAC METAR
George Best Belfast City Airport
Belfast, United Kingdom
Current

37 mins ago

EGAC 150120Z AUTO 13004KT 2000 BR FEW022/// 09/09 Q1003
Observed
Oct-15 @ 01:20 UTC
Wind
  • 130° at 4 KTS
Visibility
2,000 meters
Flight Rules
IFR
Conditions
Mist
Cloud Levels
  • Few at 2,200' AGL
Temperature
C / 48°F
Dewpoint
C / 48°F
Humidity
100%
Altimeter
29.62" Hg
Pressure
1002.92 hPa
Previous

1 hour ago

EGAC 150050Z AUTO 14004KT 0300 FG FEW021/// 08/08 Q1003
Observed
Oct-15 @ 00:50 UTC
Wind
  • 140° at 4 KTS
Visibility
300 meters
Flight Rules
LIFR
Conditions
Fog
Cloud Levels
  • Few at 2,100' AGL
Temperature
C / 46°F
Dewpoint
C / 46°F
Humidity
100%
Altimeter
29.62" Hg
Pressure
1002.92 hPa
Previous

2 hours ago

EGAC 150020Z AUTO 16004KT 0300 FG NCD 08/08 Q1003
Observed
Oct-15 @ 00:20 UTC
Wind
  • 160° at 4 KTS
Visibility
300 meters
Flight Rules
LIFR
Conditions
Fog
Cloud Levels
  • Clear skies
Temperature
C / 46°F
Dewpoint
C / 46°F
Humidity
100%
Altimeter
29.62" Hg
Pressure
1002.92 hPa